sensor_id;sensor_type;location;lat;lon;timestamp;temperature;humidity
2611;DHT22;5612;51.134;17.058;2023-10-13T00:02:09;16.40;1.00
2611;DHT22;5612;51.134;17.058;2023-10-13T00:04:38;16.40;1.00
2611;DHT22;5612;51.134;17.058;2023-10-13T00:07:07;16.40;1.00
2611;DHT22;5612;51.134;17.058;2023-10-13T00:09:38;16.40;1.00
2611;DHT22;5612;51.134;17.058;2023-10-13T00:12:08;16.40;1.00
2611;DHT22;5612;51.134;17.058;2023-10-13T00:14:41;16.40;1.00
2611;DHT22;5612;51.134;17.058;2023-10-13T00:17:13;16.40;1.00
2611;DHT22;5612;51.134;17.058;2023-10-13T00:19:48;16.40;1.00
2611;DHT22;5612;51.134;17.058;2023-10-13T00:22:20;16.40;1.00
2611;DHT22;5612;51.134;17.058;2023-10-13T00:24:51;16.30;1.00
2611;DHT22;5612;51.134;17.058;2023-10-13T00:27:26;16.40;1.00
2611;DHT22;5612;51.134;17.058;2023-10-13T00:30:00;16.30;1.00
2611;DHT22;5612;51.134;17.058;2023-10-13T00:32:50;16.30;1.00
2611;DHT22;5612;51.134;17.058;2023-10-13T00:35:23;16.30;1.00
2611;DHT22;5612;51.134;17.058;2023-10-13T00:37:56;16.20;1.00
2611;DHT22;5612;51.134;17.058;2023-10-13T00:40:33;16.20;2.20
2611;DHT22;5612;51.134;17.058;2023-10-13T00:43:20;16.20;1.00
2611;DHT22;5612;51.134;17.058;2023-10-13T00:46:02;16.10;12.70
2611;DHT22;5612;51.134;17.058;2023-10-13T00:48:41;16.10;14.20
2611;DHT22;5612;51.134;17.058;2023-10-13T00:51:12;16.10;10.50
2611;DHT22;5612;51.134;17.058;2023-10-13T00:54:04;16.10;17.70
2611;DHT22;5612;51.134;17.058;2023-10-13T00:56:37;16.00;20.30
2611;DHT22;5612;51.134;17.058;2023-10-13T00:59:14;16.00;29.50
2611;DHT22;5612;51.134;17.058;2023-10-13T01:01:42;16.00;30.70
2611;DHT22;5612;51.134;17.058;2023-10-13T01:04:12;16.00;35.20
2611;DHT22;5612;51.134;17.058;2023-10-13T01:06:40;16.00;30.50
2611;DHT22;5612;51.134;17.058;2023-10-13T01:09:10;15.90;41.00
2611;DHT22;5612;51.134;17.058;2023-10-13T01:11:43;15.90;27.40
2611;DHT22;5612;51.134;17.058;2023-10-13T01:14:12;16.00;27.10
2611;DHT22;5612;51.134;17.058;2023-10-13T01:16:42;16.00;29.20
2611;DHT22;5612;51.134;17.058;2023-10-13T01:19:13;16.00;24.20
2611;DHT22;5612;51.134;17.058;2023-10-13T01:21:41;15.90;30.90
2611;DHT22;5612;51.134;17.058;2023-10-13T01:24:13;15.90;28.30
2611;DHT22;5612;51.134;17.058;2023-10-13T01:26:46;15.90;29.40
2611;DHT22;5612;51.134;17.058;2023-10-13T01:29:18;15.80;29.60
2611;DHT22;5612;51.134;17.058;2023-10-13T01:31:47;15.80;41.20
2611;DHT22;5612;51.134;17.058;2023-10-13T01:34:17;15.80;46.00
2611;DHT22;5612;51.134;17.058;2023-10-13T01:36:50;15.80;33.10
2611;DHT22;5612;51.134;17.058;2023-10-13T01:39:23;15.80;58.10
2611;DHT22;5612;51.134;17.058;2023-10-13T01:41:54;15.80;55.50
2611;DHT22;5612;51.134;17.058;2023-10-13T01:44:23;15.90;50.60
2611;DHT22;5612;51.134;17.058;2023-10-13T01:46:55;15.80;41.30
2611;DHT22;5612;51.134;17.058;2023-10-13T01:49:23;15.80;58.80
2611;DHT22;5612;51.134;17.058;2023-10-13T01:51:52;15.80;59.20
2611;DHT22;5612;51.134;17.058;2023-10-13T01:54:21;15.90;56.20
2611;DHT22;5612;51.134;17.058;2023-10-13T01:56:50;15.90;50.90
2611;DHT22;5612;51.134;17.058;2023-10-13T01:59:17;15.80;64.70
2611;DHT22;5612;51.134;17.058;2023-10-13T02:01:47;15.90;67.50
2611;DHT22;5612;51.134;17.058;2023-10-13T02:04:14;15.90;73.00
2611;DHT22;5612;51.134;17.058;2023-10-13T02:06:49;15.90;72.50
2611;DHT22;5612;51.134;17.058;2023-10-13T02:09:16;15.90;80.40
2611;DHT22;5612;51.134;17.058;2023-10-13T02:11:54;15.80;81.80
2611;DHT22;5612;51.134;17.058;2023-10-13T02:14:22;15.80;95.50
2611;DHT22;5612;51.134;17.058;2023-10-13T02:16:53;15.70;95.80
2611;DHT22;5612;51.134;17.058;2023-10-13T02:19:40;15.60;99.90
2611;DHT22;5612;51.134;17.058;2023-10-13T02:22:13;15.50;99.90
2611;DHT22;5612;51.134;17.058;2023-10-13T02:24:56;15.50;99.90
2611;DHT22;5612;51.134;17.058;2023-10-13T02:27:32;15.50;99.90
2611;DHT22;5612;51.134;17.058;2023-10-13T02:30:09;15.50;99.90
2611;DHT22;5612;51.134;17.058;2023-10-13T02:32:42;15.50;99.90
2611;DHT22;5612;51.134;17.058;2023-10-13T02:35:11;15.60;99.90
2611;DHT22;5612;51.134;17.058;2023-10-13T02:37:43;15.70;99.90
2611;DHT22;5612;51.134;17.058;2023-10-13T02:40:12;15.70;99.90
2611;DHT22;5612;51.134;17.058;2023-10-13T02:42:42;15.80;99.90
2611;DHT22;5612;51.134;17.058;2023-10-13T02:45:10;15.80;99.90
2611;DHT22;5612;51.134;17.058;2023-10-13T02:47:39;15.70;99.90
2611;DHT22;5612;51.134;17.058;2023-10-13T02:50:10;15.70;98.40
2611;DHT22;5612;51.134;17.058;2023-10-13T02:52:40;15.70;93.00
2611;DHT22;5612;51.134;17.058;2023-10-13T02:55:09;15.70;93.30
2611;DHT22;5612;51.134;17.058;2023-10-13T02:57:43;15.60;93.30
2611;DHT22;5612;51.134;17.058;2023-10-13T03:00:13;15.70;90.00
2611;DHT22;5612;51.134;17.058;2023-10-13T03:02:42;15.60;82.10
2611;DHT22;5612;51.134;17.058;2023-10-13T03:05:23;15.60;78.70
2611;DHT22;5612;51.134;17.058;2023-10-13T03:07:50;15.60;77.30
2611;DHT22;5612;51.134;17.058;2023-10-13T03:10:20;15.50;71.40
2611;DHT22;5612;51.134;17.058;2023-10-13T03:12:50;15.50;74.90
2611;DHT22;5612;51.134;17.058;2023-10-13T03:15:19;15.50;70.90
2611;DHT22;5612;51.134;17.058;2023-10-13T03:17:48;15.50;74.50
2611;DHT22;5612;51.134;17.058;2023-10-13T03:20:17;15.40;67.70
2611;DHT22;5612;51.134;17.058;2023-10-13T03:22:52;15.40;70.00
2611;DHT22;5612;51.134;17.058;2023-10-13T03:25:21;15.40;76.40
2611;DHT22;5612;51.134;17.058;2023-10-13T03:27:53;15.40;73.70
2611;DHT22;5612;51.134;17.058;2023-10-13T03:30:33;15.40;69.50
2611;DHT22;5612;51.134;17.058;2023-10-13T03:33:10;15.40;70.60
2611;DHT22;5612;51.134;17.058;2023-10-13T03:35:42;15.30;57.70
2611;DHT22;5612;51.134;17.058;2023-10-13T03:38:12;15.30;64.10
2611;DHT22;5612;51.134;17.058;2023-10-13T03:40:46;15.30;69.80
2611;DHT22;5612;51.134;17.058;2023-10-13T03:43:25;15.20;65.10
2611;DHT22;5612;51.134;17.058;2023-10-13T03:45:58;15.10;57.70
2611;DHT22;5612;51.134;17.058;2023-10-13T03:48:35;15.10;84.00
2611;DHT22;5612;51.134;17.058;2023-10-13T03:51:19;15.10;80.20
2611;DHT22;5612;51.134;17.058;2023-10-13T03:53:48;15.10;73.50
2611;DHT22;5612;51.134;17.058;2023-10-13T03:56:23;15.10;80.20
2611;DHT22;5612;51.134;17.058;2023-10-13T03:59:00;15.00;83.10
2611;DHT22;5612;51.134;17.058;2023-10-13T04:01:33;15.00;81.30
2611;DHT22;5612;51.134;17.058;2023-10-13T04:04:15;14.90;95.40
2611;DHT22;5612;51.134;17.058;2023-10-13T04:07:02;14.90;99.90
2611;DHT22;5612;51.134;17.058;2023-10-13T04:09:54;14.90;99.90
2611;DHT22;5612;51.134;17.058;2023-10-13T04:12:37;15.00;99.90
2611;DHT22;5612;51.134;17.058;2023-10-13T04:15:24;14.90;99.90
2611;DHT22;5612;51.134;17.058;2023-10-13T04:18:04;15.00;99.90
2611;DHT22;5612;51.134;17.058;2023-10-13T04:20:53;15.00;99.90
2611;DHT22;5612;51.134;17.058;2023-10-13T04:23:35;15.10;99.90
2611;DHT22;5612;51.134;17.058;2023-10-13T04:26:25;15.20;99.90
2611;DHT22;5612;51.134;17.058;2023-10-13T04:29:04;15.20;99.90
2611;DHT22;5612;51.134;17.058;2023-10-13T04:31:39;15.20;99.90
2611;DHT22;5612;51.134;17.058;2023-10-13T04:34:26;15.20;99.90
2611;DHT22;5612;51.134;17.058;2023-10-13T04:37:05;15.20;99.90
2611;DHT22;5612;51.134;17.058;2023-10-13T04:39:56;15.20;99.90
2611;DHT22;5612;51.134;17.058;2023-10-13T04:42:27;15.30;99.90
2611;DHT22;5612;51.134;17.058;2023-10-13T04:45:17;15.30;99.90
2611;DHT22;5612;51.134;17.058;2023-10-13T04:48:07;15.30;99.90
2611;DHT22;5612;51.134;17.058;2023-10-13T04:50:46;15.40;99.90
2611;DHT22;5612;51.134;17.058;2023-10-13T04:53:18;15.40;99.90
2611;DHT22;5612;51.134;17.058;2023-10-13T04:56:00;15.40;99.90
2611;DHT22;5612;51.134;17.058;2023-10-13T04:58:43;15.50;99.90
2611;DHT22;5612;51.134;17.058;2023-10-13T05:01:28;15.50;99.90
2611;DHT22;5612;51.134;17.058;2023-10-13T05:04:16;15.60;99.90
2611;DHT22;5612;51.134;17.058;2023-10-13T05:07:06;15.60;99.90
2611;DHT22;5612;51.134;17.058;2023-10-13T05:09:52;15.60;99.90
2611;DHT22;5612;51.134;17.058;2023-10-13T05:12:38;15.60;99.90
2611;DHT22;5612;51.134;17.058;2023-10-13T05:15:28;15.50;99.90
2611;DHT22;5612;51.134;17.058;2023-10-13T05:18:14;15.50;99.90
2611;DHT22;5612;51.134;17.058;2023-10-13T05:21:02;15.60;99.90
2611;DHT22;5612;51.134;17.058;2023-10-13T05:23:48;15.70;99.90
2611;DHT22;5612;51.134;17.058;2023-10-13T05:26:34;15.80;99.90
2611;DHT22;5612;51.134;17.058;2023-10-13T05:29:21;16.00;99.90
2611;DHT22;5612;51.134;17.058;2023-10-13T05:32:07;16.00;95.50
2611;DHT22;5612;51.134;17.058;2023-10-13T05:34:53;16.10;95.70
2611;DHT22;5612;51.134;17.058;2023-10-13T05:37:41;16.10;87.20
2611;DHT22;5612;51.134;17.058;2023-10-13T05:40:27;16.10;59.90
2611;DHT22;5612;51.134;17.058;2023-10-13T05:43:13;16.20;68.60
2611;DHT22;5612;51.134;17.058;2023-10-13T05:46:02;16.20;76.50
2611;DHT22;5612;51.134;17.058;2023-10-13T05:48:44;16.30;66.90
2611;DHT22;5612;51.134;17.058;2023-10-13T05:51:28;16.20;68.60
2611;DHT22;5612;51.134;17.058;2023-10-13T05:54:16;16.30;57.20
2611;DHT22;5612;51.134;17.058;2023-10-13T05:57:02;16.30;39.90
2611;DHT22;5612;51.134;17.058;2023-10-13T05:59:48;16.30;15.50
2611;DHT22;5612;51.134;17.058;2023-10-13T06:02:36;16.40;23.80
2611;DHT22;5612;51.134;17.058;2023-10-13T06:05:22;16.50;18.80
2611;DHT22;5612;51.134;17.058;2023-10-13T06:08:08;16.60;16.70
2611;DHT22;5612;51.134;17.058;2023-10-13T06:11:04;16.70;18.40
2611;DHT22;5612;51.134;17.058;2023-10-13T06:13:50;16.70;5.90
2611;DHT22;5612;51.134;17.058;2023-10-13T06:16:37;16.70;14.20
2611;DHT22;5612;51.134;17.058;2023-10-13T06:19:24;16.70;11.50
2611;DHT22;5612;51.134;17.058;2023-10-13T06:22:09;16.80;21.70
2611;DHT22;5612;51.134;17.058;2023-10-13T06:24:56;16.80;5.90
2611;DHT22;5612;51.134;17.058;2023-10-13T06:27:43;16.70;1.00
2611;DHT22;5612;51.134;17.058;2023-10-13T06:30:38;16.60;4.60
2611;DHT22;5612;51.134;17.058;2023-10-13T06:33:07;16.40;40.00
2611;DHT22;5612;51.134;17.058;2023-10-13T06:35:38;16.40;25.30
2611;DHT22;5612;51.134;17.058;2023-10-13T06:38:08;16.20;45.20
2611;DHT22;5612;51.134;17.058;2023-10-13T06:40:47;16.20;94.70
2611;DHT22;5612;51.134;17.058;2023-10-13T06:43:19;16.20;81.30
2611;DHT22;5612;51.134;17.058;2023-10-13T06:45:54;16.30;56.40
2611;DHT22;5612;51.134;17.058;2023-10-13T06:48:28;16.50;35.20
2611;DHT22;5612;51.134;17.058;2023-10-13T06:51:00;16.60;1.00
2611;DHT22;5612;51.134;17.058;2023-10-13T06:53:33;16.60;1.00
2611;DHT22;5612;51.134;17.058;2023-10-13T06:56:06;16.70;1.00
2611;DHT22;5612;51.134;17.058;2023-10-13T06:58:38;16.90;1.00
2611;DHT22;5612;51.134;17.058;2023-10-13T07:01:10;16.90;1.00
2611;DHT22;5612;51.134;17.058;2023-10-13T07:03:42;17.10;1.00
2611;DHT22;5612;51.134;17.058;2023-10-13T07:06:17;17.20;1.00
2611;DHT22;5612;51.134;17.058;2023-10-13T07:08:47;17.40;1.00
2611;DHT22;5612;51.134;17.058;2023-10-13T07:11:23;17.80;1.00
2611;DHT22;5612;51.134;17.058;2023-10-13T07:14:04;18.50;96.80
2611;DHT22;5612;51.134;17.058;2023-10-13T07:16:43;19.20;99.90
2611;DHT22;5612;51.134;17.058;2023-10-13T07:19:14;20.00;99.90
2611;DHT22;5612;51.134;17.058;2023-10-13T07:21:48;20.90;99.90
2611;DHT22;5612;51.134;17.058;2023-10-13T07:24:26;22.00;99.90
2611;DHT22;5612;51.134;17.058;2023-10-13T07:27:03;22.90;10.30
2611;DHT22;5612;51.134;17.058;2023-10-13T07:29:34;23.60;1.00
2611;DHT22;5612;51.134;17.058;2023-10-13T07:32:04;24.20;1.00
2611;DHT22;5612;51.134;17.058;2023-10-13T07:34:40;25.00;1.00
2611;DHT22;5612;51.134;17.058;2023-10-13T07:37:09;26.20;1.00
2611;DHT22;5612;51.134;17.058;2023-10-13T07:39:40;26.60;1.00
2611;DHT22;5612;51.134;17.058;2023-10-13T07:42:10;26.40;1.00
2611;DHT22;5612;51.134;17.058;2023-10-13T07:44:48;27.00;1.00
2611;DHT22;5612;51.134;17.058;2023-10-13T07:47:17;27.60;1.00
2611;DHT22;5612;51.134;17.058;2023-10-13T07:49:48;27.80;1.00
2611;DHT22;5612;51.134;17.058;2023-10-13T07:52:18;27.50;1.00
2611;DHT22;5612;51.134;17.058;2023-10-13T07:55:04;27.70;1.00
2611;DHT22;5612;51.134;17.058;2023-10-13T07:57:48;27.60;1.00
2611;DHT22;5612;51.134;17.058;2023-10-13T08:00:24;27.90;1.00
2611;DHT22;5612;51.134;17.058;2023-10-13T08:02:57;28.00;1.00
2611;DHT22;5612;51.134;17.058;2023-10-13T08:05:37;28.50;1.00
2611;DHT22;5612;51.134;17.058;2023-10-13T08:08:23;29.40;1.00
2611;DHT22;5612;51.134;17.058;2023-10-13T08:10:53;30.10;1.00
2611;DHT22;5612;51.134;17.058;2023-10-13T08:13:35;30.50;1.00
2611;DHT22;5612;51.134;17.058;2023-10-13T08:16:23;30.40;1.00
2611;DHT22;5612;51.134;17.058;2023-10-13T08:18:58;30.20;1.00
2611;DHT22;5612;51.134;17.058;2023-10-13T08:21:29;30.50;1.00
2611;DHT22;5612;51.134;17.058;2023-10-13T08:24:00;30.90;1.00
2611;DHT22;5612;51.134;17.058;2023-10-13T08:26:34;30.70;1.00
2611;DHT22;5612;51.134;17.058;2023-10-13T08:29:20;30.90;1.00
2611;DHT22;5612;51.134;17.058;2023-10-13T08:32:13;31.20;1.00
2611;DHT22;5612;51.134;17.058;2023-10-13T08:34:50;30.90;1.00
2611;DHT22;5612;51.134;17.058;2023-10-13T08:37:36;31.20;1.00
2611;DHT22;5612;51.134;17.058;2023-10-13T08:40:38;32.00;1.00
2611;DHT22;5612;51.134;17.058;2023-10-13T08:43:32;32.20;1.00
2611;DHT22;5612;51.134;17.058;2023-10-13T08:46:11;32.00;1.00
2611;DHT22;5612;51.134;17.058;2023-10-13T08:48:58;31.90;1.00
2611;DHT22;5612;51.134;17.058;2023-10-13T08:51:37;31.10;1.00
2611;DHT22;5612;51.134;17.058;2023-10-13T08:54:14;30.90;1.00
2611;DHT22;5612;51.134;17.058;2023-10-13T08:57:02;30.60;1.00
2611;DHT22;5612;51.134;17.058;2023-10-13T08:59:48;30.10;1.00
2611;DHT22;5612;51.134;17.058;2023-10-13T09:02:23;30.20;1.00
2611;DHT22;5612;51.134;17.058;2023-10-13T09:05:18;30.40;1.00
2611;DHT22;5612;51.134;17.058;2023-10-13T09:08:01;29.70;1.00
2611;DHT22;5612;51.134;17.058;2023-10-13T09:10:37;29.10;1.00
2611;DHT22;5612;51.134;17.058;2023-10-13T09:13:12;28.20;1.00
2611;DHT22;5612;51.134;17.058;2023-10-13T09:15:48;28.10;1.00
2611;DHT22;5612;51.134;17.058;2023-10-13T09:18:29;27.80;1.00
2611;DHT22;5612;51.134;17.058;2023-10-13T09:21:16;28.40;1.00
2611;DHT22;5612;51.134;17.058;2023-10-13T09:24:12;28.60;1.00
2611;DHT22;5612;51.134;17.058;2023-10-13T09:27:00;28.00;1.00
2611;DHT22;5612;51.134;17.058;2023-10-13T09:29:32;28.40;1.00
2611;DHT22;5612;51.134;17.058;2023-10-13T09:32:07;28.30;1.00
2611;DHT22;5612;51.134;17.058;2023-10-13T09:34:40;28.40;1.00
2611;DHT22;5612;51.134;17.058;2023-10-13T09:37:13;27.90;1.00
2611;DHT22;5612;51.134;17.058;2023-10-13T09:39:49;27.40;1.00
2611;DHT22;5612;51.134;17.058;2023-10-13T09:42:22;26.60;1.00
2611;DHT22;5612;51.134;17.058;2023-10-13T09:44:51;26.00;1.00
2611;DHT22;5612;51.134;17.058;2023-10-13T09:47:23;25.30;1.00
2611;DHT22;5612;51.134;17.058;2023-10-13T09:50:08;25.20;1.00
2611;DHT22;5612;51.134;17.058;2023-10-13T09:52:54;25.30;1.00
2611;DHT22;5612;51.134;17.058;2023-10-13T09:55:29;25.10;1.00
2611;DHT22;5612;51.134;17.058;2023-10-13T09:58:04;25.00;1.00
2611;DHT22;5612;51.134;17.058;2023-10-13T10:00:43;24.70;1.00
2611;DHT22;5612;51.134;17.058;2023-10-13T10:03:23;24.90;1.00
2611;DHT22;5612;51.134;17.058;2023-10-13T10:05:58;25.40;1.00
2611;DHT22;5612;51.134;17.058;2023-10-13T10:08:35;26.60;1.00
2611;DHT22;5612;51.134;17.058;2023-10-13T10:14:16;28.50;1.00
2611;DHT22;5612;51.134;17.058;2023-10-13T10:17:04;27.50;1.00
2611;DHT22;5612;51.134;17.058;2023-10-13T10:19:46;27.10;1.00
2611;DHT22;5612;51.134;17.058;2023-10-13T10:22:26;26.70;1.00
2611;DHT22;5612;51.134;17.058;2023-10-13T10:25:04;26.50;1.00
2611;DHT22;5612;51.134;17.058;2023-10-13T10:27:55;26.00;1.00
2611;DHT22;5612;51.134;17.058;2023-10-13T10:30:26;25.80;1.00
2611;DHT22;5612;51.134;17.058;2023-10-13T10:32:55;26.60;1.00
2611;DHT22;5612;51.134;17.058;2023-10-13T10:35:27;27.60;1.00
2611;DHT22;5612;51.134;17.058;2023-10-13T10:37:57;28.90;1.00
2611;DHT22;5612;51.134;17.058;2023-10-13T10:40:50;29.40;1.00
2611;DHT22;5612;51.134;17.058;2023-10-13T10:43:26;30.30;1.00
2611;DHT22;5612;51.134;17.058;2023-10-13T10:46:06;30.00;1.00
2611;DHT22;5612;51.134;17.058;2023-10-13T10:48:44;30.50;1.00
2611;DHT22;5612;51.134;17.058;2023-10-13T10:51:14;30.90;1.00
2611;DHT22;5612;51.134;17.058;2023-10-13T10:53:52;31.10;1.00
2611;DHT22;5612;51.134;17.058;2023-10-13T10:56:31;30.90;1.00
2611;DHT22;5612;51.134;17.058;2023-10-13T10:59:06;30.50;1.00
2611;DHT22;5612;51.134;17.058;2023-10-13T11:01:43;31.30;1.00
2611;DHT22;5612;51.134;17.058;2023-10-13T11:04:19;31.60;1.00
2611;DHT22;5612;51.134;17.058;2023-10-13T11:06:53;31.80;1.00
2611;DHT22;5612;51.134;17.058;2023-10-13T11:09:27;31.40;1.00
2611;DHT22;5612;51.134;17.058;2023-10-13T11:12:14;31.00;1.00
2611;DHT22;5612;51.134;17.058;2023-10-13T11:14:45;30.50;1.00
2611;DHT22;5612;51.134;17.058;2023-10-13T11:17:21;29.60;1.00
2611;DHT22;5612;51.134;17.058;2023-10-13T11:19:54;28.80;1.00
2611;DHT22;5612;51.134;17.058;2023-10-13T11:22:23;28.50;1.00
2611;DHT22;5612;51.134;17.058;2023-10-13T11:25:02;27.80;1.00
2611;DHT22;5612;51.134;17.058;2023-10-13T11:27:38;27.20;1.00
2611;DHT22;5612;51.134;17.058;2023-10-13T11:30:24;27.40;1.00
2611;DHT22;5612;51.134;17.058;2023-10-13T11:32:58;27.90;1.00
2611;DHT22;5612;51.134;17.058;2023-10-13T11:35:33;27.90;1.00
2611;DHT22;5612;51.134;17.058;2023-10-13T11:38:26;27.40;1.00
2611;DHT22;5612;51.134;17.058;2023-10-13T11:40:58;27.30;1.00
2611;DHT22;5612;51.134;17.058;2023-10-13T11:43:45;26.80;1.00
2611;DHT22;5612;51.134;17.058;2023-10-13T11:46:36;26.10;1.00
2611;DHT22;5612;51.134;17.058;2023-10-13T11:49:31;25.40;1.00
2611;DHT22;5612;51.134;17.058;2023-10-13T11:52:04;25.50;1.00
2611;DHT22;5612;51.134;17.058;2023-10-13T11:54:45;25.80;1.00
2611;DHT22;5612;51.134;17.058;2023-10-13T11:57:15;25.70;1.00
2611;DHT22;5612;51.134;17.058;2023-10-13T11:59:48;25.40;1.00
2611;DHT22;5612;51.134;17.058;2023-10-13T12:02:46;26.00;1.00
2611;DHT22;5612;51.134;17.058;2023-10-13T12:05:41;26.30;1.00
2611;DHT22;5612;51.134;17.058;2023-10-13T12:08:33;26.20;1.00
2611;DHT22;5612;51.134;17.058;2023-10-13T12:11:06;26.30;1.00
2611;DHT22;5612;51.134;17.058;2023-10-13T12:13:49;26.40;1.00
2611;DHT22;5612;51.134;17.058;2023-10-13T12:16:20;25.50;1.00
2611;DHT22;5612;51.134;17.058;2023-10-13T12:18:49;25.00;1.00
2611;DHT22;5612;51.134;17.058;2023-10-13T12:21:20;24.70;1.00
2611;DHT22;5612;51.134;17.058;2023-10-13T12:23:49;24.20;1.00
2611;DHT22;5612;51.134;17.058;2023-10-13T12:26:21;23.90;1.00
2611;DHT22;5612;51.134;17.058;2023-10-13T12:28:59;23.90;1.00
2611;DHT22;5612;51.134;17.058;2023-10-13T12:31:35;23.90;1.00
2611;DHT22;5612;51.134;17.058;2023-10-13T12:34:06;23.60;1.00
2611;DHT22;5612;51.134;17.058;2023-10-13T12:36:46;23.50;1.00
2611;DHT22;5612;51.134;17.058;2023-10-13T12:39:33;23.50;1.00
2611;DHT22;5612;51.134;17.058;2023-10-13T12:42:34;23.20;1.00
2611;DHT22;5612;51.134;17.058;2023-10-13T12:45:19;22.80;1.00
2611;DHT22;5612;51.134;17.058;2023-10-13T12:48:12;22.70;1.00
2611;DHT22;5612;51.134;17.058;2023-10-13T12:51:00;22.70;1.00
2611;DHT22;5612;51.134;17.058;2023-10-13T12:53:47;22.40;1.00
2611;DHT22;5612;51.134;17.058;2023-10-13T12:56:16;22.40;1.00
2611;DHT22;5612;51.134;17.058;2023-10-13T12:58:53;22.50;1.00
2611;DHT22;5612;51.134;17.058;2023-10-13T13:01:24;22.40;1.00
2611;DHT22;5612;51.134;17.058;2023-10-13T13:04:01;22.40;1.00
2611;DHT22;5612;51.134;17.058;2023-10-13T13:06:32;22.50;1.00
2611;DHT22;5612;51.134;17.058;2023-10-13T13:09:01;22.50;1.00
2611;DHT22;5612;51.134;17.058;2023-10-13T13:11:30;22.50;1.00
2611;DHT22;5612;51.134;17.058;2023-10-13T13:13:58;22.60;1.00
2611;DHT22;5612;51.134;17.058;2023-10-13T13:16:27;22.40;1.00
2611;DHT22;5612;51.134;17.058;2023-10-13T13:18:58;22.20;11.80
2611;DHT22;5612;51.134;17.058;2023-10-13T13:21:30;22.00;45.30
2611;DHT22;5612;51.134;17.058;2023-10-13T13:23:59;22.00;60.30
2611;DHT22;5612;51.134;17.058;2023-10-13T13:26:30;21.90;71.90
2611;DHT22;5612;51.134;17.058;2023-10-13T13:28:59;22.00;72.90
2611;DHT22;5612;51.134;17.058;2023-10-13T13:31:28;21.90;99.10
2611;DHT22;5612;51.134;17.058;2023-10-13T13:33:57;21.80;96.80
2611;DHT22;5612;51.134;17.058;2023-10-13T13:36:26;21.80;99.90
2611;DHT22;5612;51.134;17.058;2023-10-13T13:38:56;21.80;99.90
2611;DHT22;5612;51.134;17.058;2023-10-13T13:41:27;22.00;99.90
2611;DHT22;5612;51.134;17.058;2023-10-13T13:44:00;22.10;91.50
2611;DHT22;5612;51.134;17.058;2023-10-13T13:46:40;22.30;92.20
2611;DHT22;5612;51.134;17.058;2023-10-13T13:49:10;22.20;68.50
2611;DHT22;5612;51.134;17.058;2023-10-13T13:51:47;22.20;92.40
2611;DHT22;5612;51.134;17.058;2023-10-13T13:54:20;22.30;58.10
2611;DHT22;5612;51.134;17.058;2023-10-13T13:56:50;22.40;57.90
2611;DHT22;5612;51.134;17.058;2023-10-13T13:59:19;22.50;51.00
2611;DHT22;5612;51.134;17.058;2023-10-13T14:01:48;22.40;58.20
2611;DHT22;5612;51.134;17.058;2023-10-13T14:04:20;22.70;48.50
2611;DHT22;5612;51.134;17.058;2023-10-13T14:06:50;22.90;19.00
2611;DHT22;5612;51.134;17.058;2023-10-13T14:09:20;22.90;16.50
2611;DHT22;5612;51.134;17.058;2023-10-13T14:12:07;22.80;23.80
2611;DHT22;5612;51.134;17.058;2023-10-13T14:14:50;22.60;43.70
2611;DHT22;5612;51.134;17.058;2023-10-13T14:17:23;22.60;42.10
2611;DHT22;5612;51.134;17.058;2023-10-13T14:19:57;22.70;48.50
2611;DHT22;5612;51.134;17.058;2023-10-13T14:22:26;22.70;39.70
2611;DHT22;5612;51.134;17.058;2023-10-13T14:24:57;22.50;76.90
2611;DHT22;5612;51.134;17.058;2023-10-13T14:27:31;22.40;86.50
2611;DHT22;5612;51.134;17.058;2023-10-13T14:30:00;22.50;74.60
2611;DHT22;5612;51.134;17.058;2023-10-13T14:32:30;22.40;88.30
2611;DHT22;5612;51.134;17.058;2023-10-13T14:34:59;22.30;99.90
2611;DHT22;5612;51.134;17.058;2023-10-13T14:37:38;22.30;99.90
2611;DHT22;5612;51.134;17.058;2023-10-13T14:40:10;22.30;99.90
2611;DHT22;5612;51.134;17.058;2023-10-13T14:42:42;22.20;99.90
2611;DHT22;5612;51.134;17.058;2023-10-13T14:45:11;22.00;99.90
2611;DHT22;5612;51.134;17.058;2023-10-13T14:47:41;22.00;99.90
2611;DHT22;5612;51.134;17.058;2023-10-13T14:50:10;22.00;99.90
2611;DHT22;5612;51.134;17.058;2023-10-13T14:52:48;21.80;99.90
2611;DHT22;5612;51.134;17.058;2023-10-13T14:55:19;21.90;99.90
2611;DHT22;5612;51.134;17.058;2023-10-13T14:57:49;22.00;99.90
2611;DHT22;5612;51.134;17.058;2023-10-13T15:00:19;22.10;99.90
2611;DHT22;5612;51.134;17.058;2023-10-13T15:02:53;21.90;99.90
2611;DHT22;5612;51.134;17.058;2023-10-13T15:05:23;21.90;99.90
2611;DHT22;5612;51.134;17.058;2023-10-13T15:07:52;21.90;99.90
2611;DHT22;5612;51.134;17.058;2023-10-13T15:10:22;21.80;99.90
2611;DHT22;5612;51.134;17.058;2023-10-13T15:12:54;21.80;99.90
2611;DHT22;5612;51.134;17.058;2023-10-13T15:15:23;21.90;99.90
2611;DHT22;5612;51.134;17.058;2023-10-13T15:17:51;21.80;99.90
2611;DHT22;5612;51.134;17.058;2023-10-13T15:20:21;21.90;99.90
2611;DHT22;5612;51.134;17.058;2023-10-13T15:22:50;21.80;99.90
2611;DHT22;5612;51.134;17.058;2023-10-13T15:25:29;21.90;99.90
2611;DHT22;5612;51.134;17.058;2023-10-13T15:28:06;21.80;99.90
2611;DHT22;5612;51.134;17.058;2023-10-13T15:30:37;21.70;99.90
2611;DHT22;5612;51.134;17.058;2023-10-13T15:33:19;21.60;99.90
2611;DHT22;5612;51.134;17.058;2023-10-13T15:35:48;21.60;99.90
2611;DHT22;5612;51.134;17.058;2023-10-13T15:38:19;21.50;99.90
2611;DHT22;5612;51.134;17.058;2023-10-13T15:40:51;21.50;99.90
2611;DHT22;5612;51.134;17.058;2023-10-13T15:43:22;21.40;99.90
2611;DHT22;5612;51.134;17.058;2023-10-13T15:45:51;21.40;99.90
2611;DHT22;5612;51.134;17.058;2023-10-13T15:48:20;21.30;99.90
2611;DHT22;5612;51.134;17.058;2023-10-13T15:50:52;21.30;99.90
2611;DHT22;5612;51.134;17.058;2023-10-13T15:53:21;21.20;99.90
2611;DHT22;5612;51.134;17.058;2023-10-13T15:55:54;21.30;99.90
2611;DHT22;5612;51.134;17.058;2023-10-13T15:58:23;21.20;1.00
2611;DHT22;5612;51.134;17.058;2023-10-13T16:00:53;21.10;1.00
2611;DHT22;5612;51.134;17.058;2023-10-13T16:03:24;20.90;1.00
2611;DHT22;5612;51.134;17.058;2023-10-13T16:05:55;20.90;1.00
2611;DHT22;5612;51.134;17.058;2023-10-13T16:08:23;20.90;1.00
2611;DHT22;5612;51.134;17.058;2023-10-13T16:10:54;20.80;1.00
2611;DHT22;5612;51.134;17.058;2023-10-13T16:13:35;20.80;1.00
2611;DHT22;5612;51.134;17.058;2023-10-13T16:16:04;20.80;1.00
2611;DHT22;5612;51.134;17.058;2023-10-13T16:18:33;20.80;48.90
2611;DHT22;5612;51.134;17.058;2023-10-13T16:21:12;20.70;99.90
2611;DHT22;5612;51.134;17.058;2023-10-13T16:23:49;20.50;99.90
2611;DHT22;5612;51.134;17.058;2023-10-13T16:26:29;20.40;1.00
2611;DHT22;5612;51.134;17.058;2023-10-13T16:28:58;20.30;1.00
2611;DHT22;5612;51.134;17.058;2023-10-13T16:31:27;20.20;99.90
2611;DHT22;5612;51.134;17.058;2023-10-13T16:33:56;20.10;1.00
2611;DHT22;5612;51.134;17.058;2023-10-13T16:36:26;20.00;99.90
2611;DHT22;5612;51.134;17.058;2023-10-13T16:38:55;20.00;99.90
2611;DHT22;5612;51.134;17.058;2023-10-13T16:41:25;19.90;1.00
2611;DHT22;5612;51.134;17.058;2023-10-13T16:43:57;19.80;14.80
2611;DHT22;5612;51.134;17.058;2023-10-13T16:46:28;19.80;3.60
2611;DHT22;5612;51.134;17.058;2023-10-13T16:49:00;19.80;99.90
2611;DHT22;5612;51.134;17.058;2023-10-13T16:51:29;19.80;1.00
2611;DHT22;5612;51.134;17.058;2023-10-13T16:53:58;19.80;99.90